EZY739Q EGAA-EGPH
Flight info
| Callsign | EZY739Q |
|---|---|
| Flight time | 0h 30m |
| Altitude | 23000 |
| Route | BLACA P600 TUNSO |
| Aircraft | A319/M-SDE2E3FGIJ1RWXYZ/LB1 |
Departure
| Time | 2026-04-20 14:05 |
|---|---|
| Airport | Belfast International Airport (EGAA) |
Arrival
| Time | 2026-04-20 14:35 |
|---|---|
| Airport | Edinburgh Airport (EGPH) |
| Time | Latitude | Longitude | Altitude | Speed | Heading |
|---|---|---|---|---|---|
| 2026-04-20 13:35 | 54.66144 | -6.21387 | 274 ft | 0 kts | 244° |
| 2026-04-20 13:54 | 54.66144 | -6.21386 | 272 ft | 1 kts | 244° |
| 2026-04-20 13:54 | 54.66155 | -6.21348 | 277 ft | 4 kts | 239° |
| 2026-04-20 13:54 | 54.66171 | -6.21313 | 272 ft | 4 kts | 205° |
| 2026-04-20 13:55 | 54.66185 | -6.21309 | 277 ft | 0 kts | 155° |
| 2026-04-20 13:58 | 54.66176 | -6.21302 | 272 ft | 3 kts | 156° |
| 2026-04-20 13:58 | 54.66140 | -6.21273 | 272 ft | 7 kts | 155° |
| 2026-04-20 13:58 | 54.66099 | -6.21240 | 272 ft | 6 kts | 155° |
| 2026-04-20 13:58 | 54.66066 | -6.21214 | 272 ft | 4 kts | 155° |
| 2026-04-20 13:59 | 54.66040 | -6.21214 | 272 ft | 4 kts | 201° |
| 2026-04-20 13:59 | 54.66019 | -6.21261 | 272 ft | 6 kts | 241° |
| 2026-04-20 13:59 | 54.66000 | -6.21332 | 272 ft | 7 kts | 245° |
| 2026-04-20 13:59 | 54.65977 | -6.21414 | 274 ft | 9 kts | 245° |
| 2026-04-20 14:00 | 54.65946 | -6.21529 | 272 ft | 12 kts | 245° |
| 2026-04-20 14:00 | 54.65908 | -6.21666 | 276 ft | 12 kts | 245° |
| 2026-04-20 14:00 | 54.65872 | -6.21805 | 272 ft | 14 kts | 246° |
| 2026-04-20 14:00 | 54.65828 | -6.21966 | 273 ft | 16 kts | 245° |
| 2026-04-20 14:01 | 54.65781 | -6.22155 | 272 ft | 19 kts | 254° |
| 2026-04-20 14:01 | 54.65760 | -6.22392 | 272 ft | 21 kts | 263° |
| 2026-04-20 14:01 | 54.65744 | -6.22661 | 272 ft | 24 kts | 268° |
| 2026-04-20 14:01 | 54.65705 | -6.22910 | 272 ft | 23 kts | 237° |
| 2026-04-20 14:02 | 54.65609 | -6.23137 | 274 ft | 19 kts | 234° |
| 2026-04-20 14:02 | 54.65534 | -6.23311 | 272 ft | 16 kts | 226° |
| 2026-04-20 14:02 | 54.65442 | -6.23382 | 275 ft | 10 kts | 202° |
| 2026-04-20 14:02 | 54.65418 | -6.23398 | 276 ft | 0 kts | 201° |
| 2026-04-20 14:03 | 54.65417 | -6.23399 | 276 ft | 1 kts | 201° |
| 2026-04-20 14:03 | 54.65393 | -6.23408 | 272 ft | 6 kts | 184° |
| 2026-04-20 14:03 | 54.65337 | -6.23378 | 274 ft | 10 kts | 153° |
| 2026-04-20 14:03 | 54.65283 | -6.23329 | 272 ft | 6 kts | 133° |
| 2026-04-20 14:04 | 54.65290 | -6.23283 | 272 ft | 0 kts | 64° |
| 2026-04-20 14:04 | 54.65298 | -6.23254 | 272 ft | 11 kts | 64° |
| 2026-04-20 14:04 | 54.65455 | -6.22671 | 275 ft | 96 kts | 65° |
| 2026-04-20 14:04 | 54.65834 | -6.21272 | 450 ft | 144 kts | 64° |
| 2026-04-20 14:05 | 54.66248 | -6.19720 | 1290 ft | 142 kts | 65° |
| 2026-04-20 14:05 | 54.66674 | -6.18096 | 1952 ft | 160 kts | 68° |
| 2026-04-20 14:05 | 54.67104 | -6.16170 | 2490 ft | 183 kts | 69° |
| 2026-04-20 14:05 | 54.67577 | -6.13968 | 2996 ft | 208 kts | 70° |
| 2026-04-20 14:06 | 54.68109 | -6.11479 | 3612 ft | 234 kts | 70° |
| 2026-04-20 14:06 | 54.68695 | -6.08731 | 4448 ft | 251 kts | 70° |
| 2026-04-20 14:06 | 54.69306 | -6.05892 | 5481 ft | 259 kts | 70° |
| 2026-04-20 14:06 | 54.69942 | -6.02940 | 6570 ft | 265 kts | 70° |
| 2026-04-20 14:07 | 54.70593 | -5.99916 | 7612 ft | 271 kts | 70° |
| 2026-04-20 14:07 | 54.71254 | -5.96841 | 8703 ft | 275 kts | 69° |
| 2026-04-20 14:07 | 54.71921 | -5.93729 | 9809 ft | 278 kts | 68° |
| 2026-04-20 14:07 | 54.72599 | -5.90568 | 10737 ft | 287 kts | 68° |
| 2026-04-20 14:08 | 54.73322 | -5.87199 | 11260 ft | 308 kts | 68° |
| 2026-04-20 14:08 | 54.74080 | -5.83669 | 12078 ft | 316 kts | 68° |
| 2026-04-20 14:08 | 54.74850 | -5.80074 | 13003 ft | 322 kts | 68° |
| 2026-04-20 14:08 | 54.75631 | -5.76401 | 13901 ft | 328 kts | 68° |
| 2026-04-20 14:09 | 54.76421 | -5.72670 | 14749 ft | 332 kts | 68° |
| 2026-04-20 14:09 | 54.77223 | -5.68891 | 15570 ft | 337 kts | 68° |
| 2026-04-20 14:09 | 54.78039 | -5.65053 | 16386 ft | 342 kts | 68° |
| 2026-04-20 14:09 | 54.78864 | -5.61170 | 17209 ft | 346 kts | 68° |
| 2026-04-20 14:10 | 54.79701 | -5.57231 | 18027 ft | 349 kts | 68° |
| 2026-04-20 14:10 | 54.80541 | -5.53270 | 18834 ft | 352 kts | 67° |
| 2026-04-20 14:10 | 54.81391 | -5.49249 | 19286 ft | 358 kts | 67° |
| 2026-04-20 14:10 | 54.82248 | -5.45176 | 19572 ft | 360 kts | 67° |
| 2026-04-20 14:11 | 54.83103 | -5.41090 | 19832 ft | 361 kts | 68° |
| 2026-04-20 14:11 | 54.83949 | -5.37033 | 20084 ft | 363 kts | 68° |
| 2026-04-20 14:11 | 54.84809 | -5.32902 | 20280 ft | 365 kts | 68° |
| 2026-04-20 14:11 | 54.85652 | -5.28833 | 20320 ft | 350 kts | 68° |
| 2026-04-20 14:12 | 54.86456 | -5.24945 | 20328 ft | 336 kts | 68° |
| 2026-04-20 14:12 | 54.87272 | -5.21176 | 20310 ft | 332 kts | 62° |
| 2026-04-20 14:12 | 54.88450 | -5.17774 | 20308 ft | 327 kts | 49° |
| 2026-04-20 14:12 | 54.90017 | -5.14951 | 20317 ft | 323 kts | 36° |
| 2026-04-20 14:13 | 54.91888 | -5.12828 | 20314 ft | 321 kts | 24° |
| 2026-04-20 14:13 | 54.93893 | -5.11120 | 20313 ft | 321 kts | 24° |
| 2026-04-20 14:13 | 54.95892 | -5.09398 | 20237 ft | 322 kts | 24° |
| 2026-04-20 14:13 | 54.97889 | -5.07663 | 19933 ft | 318 kts | 24° |
| 2026-04-20 14:14 | 54.99860 | -5.05944 | 19550 ft | 316 kts | 24° |
| 2026-04-20 14:14 | 55.01823 | -5.04228 | 19162 ft | 315 kts | 24° |
| 2026-04-20 14:14 | 55.03775 | -5.02524 | 18765 ft | 313 kts | 24° |
| 2026-04-20 14:14 | 55.05722 | -5.00828 | 18354 ft | 312 kts | 25° |
| 2026-04-20 14:15 | 55.07660 | -4.99138 | 17956 ft | 310 kts | 25° |
| 2026-04-20 14:15 | 55.09557 | -4.97479 | 17588 ft | 308 kts | 25° |
| 2026-04-20 14:15 | 55.11464 | -4.95812 | 17215 ft | 306 kts | 25° |
| 2026-04-20 14:15 | 55.13279 | -4.93842 | 16957 ft | 309 kts | 36° |
| 2026-04-20 14:16 | 55.14916 | -4.91403 | 16672 ft | 310 kts | 42° |
| 2026-04-20 14:16 | 55.16451 | -4.88768 | 16381 ft | 309 kts | 44° |
| 2026-04-20 14:16 | 55.17953 | -4.86085 | 16095 ft | 307 kts | 44° |
| 2026-04-20 14:16 | 55.19451 | -4.83435 | 15803 ft | 306 kts | 44° |
| 2026-04-20 14:17 | 55.20964 | -4.80829 | 15519 ft | 304 kts | 43° |
| 2026-04-20 14:17 | 55.22482 | -4.78274 | 15239 ft | 302 kts | 43° |
| 2026-04-20 14:17 | 55.24008 | -4.75747 | 14958 ft | 301 kts | 42° |
| 2026-04-20 14:17 | 55.25532 | -4.73244 | 14679 ft | 299 kts | 42° |
| 2026-04-20 14:18 | 55.27051 | -4.70757 | 14401 ft | 298 kts | 42° |
| 2026-04-20 14:18 | 55.28565 | -4.68279 | 14135 ft | 297 kts | 43° |
| 2026-04-20 14:18 | 55.30065 | -4.65817 | 13839 ft | 295 kts | 43° |
| 2026-04-20 14:18 | 55.31563 | -4.63356 | 13562 ft | 294 kts | 43° |
| 2026-04-20 14:19 | 55.33053 | -4.60903 | 13290 ft | 292 kts | 43° |
| 2026-04-20 14:19 | 55.34529 | -4.58466 | 13019 ft | 291 kts | 43° |
| 2026-04-20 14:19 | 55.36003 | -4.56029 | 12752 ft | 290 kts | 43° |
| 2026-04-20 14:19 | 55.37468 | -4.53606 | 12484 ft | 288 kts | 43° |
| 2026-04-20 14:20 | 55.38921 | -4.51196 | 12219 ft | 288 kts | 43° |
| 2026-04-20 14:20 | 55.40375 | -4.48782 | 11954 ft | 286 kts | 43° |
| 2026-04-20 14:20 | 55.41817 | -4.46387 | 11689 ft | 285 kts | 43° |
| 2026-04-20 14:20 | 55.43238 | -4.44024 | 11424 ft | 284 kts | 44° |
| 2026-04-20 14:21 | 55.44673 | -4.41631 | 11163 ft | 284 kts | 44° |
| 2026-04-20 14:21 | 55.46104 | -4.39245 | 10900 ft | 283 kts | 44° |
| 2026-04-20 14:21 | 55.47550 | -4.36833 | 10632 ft | 282 kts | 44° |
| 2026-04-20 14:21 | 55.48971 | -4.34467 | 10364 ft | 280 kts | 44° |
| 2026-04-20 14:22 | 55.50362 | -4.32146 | 10103 ft | 279 kts | 44° |
| 2026-04-20 14:22 | 55.51769 | -4.29796 | 9826 ft | 278 kts | 44° |
| 2026-04-20 14:22 | 55.53197 | -4.27409 | 9280 ft | 280 kts | 44° |
| 2026-04-20 14:22 | 55.54590 | -4.25079 | 8945 ft | 276 kts | 44° |
| 2026-04-20 14:23 | 55.55981 | -4.22751 | 8698 ft | 274 kts | 44° |
| 2026-04-20 14:23 | 55.57359 | -4.20437 | 8446 ft | 273 kts | 44° |
| 2026-04-20 14:23 | 55.58736 | -4.18114 | 8194 ft | 273 kts | 44° |
| 2026-04-20 14:23 | 55.60105 | -4.15805 | 7940 ft | 272 kts | 44° |
| 2026-04-20 14:24 | 55.61471 | -4.13501 | 7686 ft | 271 kts | 44° |
| 2026-04-20 14:24 | 55.62833 | -4.11204 | 7439 ft | 270 kts | 45° |
| 2026-04-20 14:24 | 55.64193 | -4.08913 | 7188 ft | 269 kts | 44° |
| 2026-04-20 14:24 | 55.65550 | -4.06628 | 6939 ft | 269 kts | 44° |
| 2026-04-20 14:25 | 55.66901 | -4.04343 | 6678 ft | 268 kts | 45° |
| 2026-04-20 14:25 | 55.68245 | -4.02066 | 6432 ft | 267 kts | 45° |
| 2026-04-20 14:25 | 55.69585 | -3.99793 | 6177 ft | 266 kts | 45° |
| 2026-04-20 14:25 | 55.70921 | -3.97526 | 5932 ft | 265 kts | 45° |
| 2026-04-20 14:26 | 55.72246 | -3.95276 | 5689 ft | 263 kts | 45° |
| 2026-04-20 14:26 | 55.73566 | -3.93035 | 5446 ft | 261 kts | 45° |
| 2026-04-20 14:26 | 55.74870 | -3.90817 | 5229 ft | 257 kts | 45° |
| 2026-04-20 14:26 | 55.76118 | -3.88693 | 5140 ft | 241 kts | 45° |
| 2026-04-20 14:27 | 55.77299 | -3.86678 | 4985 ft | 230 kts | 45° |
| 2026-04-20 14:27 | 55.78427 | -3.84752 | 4850 ft | 219 kts | 46° |
| 2026-04-20 14:27 | 55.79449 | -3.82846 | 4715 ft | 208 kts | 57° |
| 2026-04-20 14:27 | 55.80168 | -3.80684 | 4593 ft | 200 kts | 62° |
| 2026-04-20 14:28 | 55.80861 | -3.78591 | 4463 ft | 198 kts | 61° |
| 2026-04-20 14:28 | 55.81565 | -3.76527 | 4329 ft | 192 kts | 60° |
| 2026-04-20 14:28 | 55.82253 | -3.74526 | 4211 ft | 187 kts | 60° |
| 2026-04-20 14:28 | 55.82920 | -3.72590 | 4100 ft | 181 kts | 60° |
| 2026-04-20 14:29 | 55.83573 | -3.70691 | 4025 ft | 178 kts | 61° |
| 2026-04-20 14:29 | 55.84215 | -3.68824 | 3996 ft | 174 kts | 60° |
| 2026-04-20 14:29 | 55.84829 | -3.67040 | 3854 ft | 167 kts | 60° |
| 2026-04-20 14:29 | 55.85428 | -3.65294 | 3644 ft | 163 kts | 60° |
| 2026-04-20 14:30 | 55.86014 | -3.63587 | 3429 ft | 160 kts | 61° |
| 2026-04-20 14:30 | 55.86591 | -3.61902 | 3214 ft | 158 kts | 60° |
| 2026-04-20 14:30 | 55.87162 | -3.60237 | 2994 ft | 157 kts | 60° |
| 2026-04-20 14:30 | 55.87723 | -3.58598 | 2783 ft | 153 kts | 60° |
| 2026-04-20 14:31 | 55.88268 | -3.57007 | 2571 ft | 147 kts | 61° |
| 2026-04-20 14:31 | 55.88791 | -3.55478 | 2369 ft | 142 kts | 61° |
| 2026-04-20 14:31 | 55.89294 | -3.54006 | 2181 ft | 136 kts | 61° |
| 2026-04-20 14:31 | 55.89773 | -3.52604 | 1983 ft | 129 kts | 61° |
| 2026-04-20 14:32 | 55.90224 | -3.51284 | 1818 ft | 125 kts | 61° |
| 2026-04-20 14:32 | 55.90674 | -3.49963 | 1646 ft | 122 kts | 62° |
| 2026-04-20 14:32 | 55.91110 | -3.48683 | 1483 ft | 123 kts | 61° |
| 2026-04-20 14:32 | 55.91554 | -3.47381 | 1304 ft | 123 kts | 60° |
| 2026-04-20 14:33 | 55.91999 | -3.46080 | 1120 ft | 123 kts | 62° |
| 2026-04-20 14:33 | 55.92435 | -3.44783 | 963 ft | 122 kts | 60° |
| 2026-04-20 14:33 | 55.92866 | -3.43500 | 776 ft | 120 kts | 60° |
| 2026-04-20 14:33 | 55.93307 | -3.42225 | 621 ft | 121 kts | 59° |
| 2026-04-20 14:34 | 55.93744 | -3.40954 | 432 ft | 120 kts | 60° |
| 2026-04-20 14:34 | 55.94173 | -3.39678 | 282 ft | 120 kts | 60° |
| 2026-04-20 14:34 | 55.94605 | -3.38410 | 132 ft | 119 kts | 59° |
| 2026-04-20 14:34 | 55.94985 | -3.37288 | 112 ft | 88 kts | 59° |
| 2026-04-20 14:35 | 55.95205 | -3.36641 | 114 ft | 26 kts | 58° |
| 2026-04-20 14:35 | 55.95255 | -3.36433 | 111 ft | 13 kts | 116° |
| 2026-04-20 14:35 | 55.95196 | -3.36355 | 115 ft | 6 kts | 148° |
| 2026-04-20 14:35 | 55.95178 | -3.36335 | 115 ft | 0 kts | 148° |
| 2026-04-20 14:36 | 55.95176 | -3.36333 | 115 ft | 1 kts | 148° |
| 2026-04-20 14:36 | 55.95162 | -3.36317 | 115 ft | 4 kts | 149° |
| 2026-04-20 14:36 | 55.95129 | -3.36311 | 114 ft | 6 kts | 210° |
| 2026-04-20 14:36 | 55.95099 | -3.36389 | 116 ft | 9 kts | 238° |
| 2026-04-20 14:37 | 55.95068 | -3.36445 | 116 ft | 3 kts | 168° |
| 2026-04-20 14:37 | 55.95051 | -3.36407 | 115 ft | 5 kts | 124° |
| 2026-04-20 14:37 | 55.95027 | -3.36354 | 115 ft | 6 kts | 140° |
| 2026-04-20 14:37 | 55.95013 | -3.36339 | 114 ft | 1 kts | 148° |
| 2026-04-20 14:38 | 55.94995 | -3.36319 | 115 ft | 4 kts | 148° |
| 2026-04-20 14:38 | 55.94968 | -3.36290 | 116 ft | 4 kts | 149° |
| 2026-04-20 14:38 | 55.94960 | -3.36281 | 116 ft | 1 kts | 149° |
| 2026-04-20 14:38 | 55.94959 | -3.36280 | 116 ft | 0 kts | 149° |